Time;durP1;ratioP1;P1;durP2;ratioP2;P2;SDS_P1;SDS_P2;PMS_P1;PMS_P2;Temp;Humidity;BMP_temperature;BMP_pressure;BME280_temperature;BME280_humidity;BME280_pressure;Samples;Min_cycle;Max_cycle;Signal;HPM_P1;HPM_P2
2023/06/21 00:00:48;;;;;;;2.90;2.30;;;;;;;25.93;55.55;99014.53;2073425;28;20057;-50
2023/06/21 00:01:49;;;;;;;1.85;1.65;;;;;;;25.91;55.39;99014.00;2073596;28;20650;-49
2023/06/21 00:02:51;;;;;;;2.67;2.17;;;;;;;25.93;55.44;99009.09;2073355;28;20045;-51
2023/06/21 00:03:52;;;;;;;1.90;1.63;;;;;;;25.94;55.37;99010.78;2072539;28;20119;-48
2023/06/21 00:04:55;;;;;;;3.65;1.67;;;;;;;25.95;55.71;99011.59;2071005;28;21824;-49
2023/06/21 00:05:56;;;;;;;2.45;2.10;;;;;;;25.94;55.88;99009.97;2070969;28;20054;-49
2023/06/21 00:06:58;;;;;;;3.72;2.20;;;;;;;25.91;55.76;99016.69;2070539;28;20077;-49
2023/06/21 00:07:59;;;;;;;2.20;2.00;;;;;;;25.92;55.98;99012.91;2071681;28;20048;-47
2023/06/21 00:09:03;;;;;;;2.55;2.20;;;;;;;25.93;55.60;99017.25;2073415;28;20049;-49
2023/06/21 00:10:07;;;;;;;2.20;1.70;;;;;;;25.93;55.42;99013.72;2069306;28;20053;-48
2023/06/21 00:11:09;;;;;;;2.50;2.30;;;;;;;25.92;55.75;99006.66;2071748;28;20050;-48
2023/06/21 00:12:10;;;;;;;2.08;1.75;;;;;;;25.92;55.68;99007.47;2071227;28;20050;-49
2023/06/21 00:13:12;;;;;;;2.17;1.83;;;;;;;25.95;55.41;99006.16;2067005;28;20503;-49
2023/06/21 00:14:13;;;;;;;2.08;1.85;;;;;;;25.93;55.55;99003.69;2070118;28;20084;-49
2023/06/21 00:15:14;;;;;;;3.03;2.50;;;;;;;25.95;55.64;99001.56;2073053;28;20060;-49
2023/06/21 00:16:15;;;;;;;2.78;2.08;;;;;;;25.92;55.77;98995.78;2074310;28;20057;-51
2023/06/21 00:17:17;;;;;;;2.17;1.98;;;;;;;25.92;55.89;98999.31;2072512;28;20112;-50
2023/06/21 00:18:18;;;;;;;2.30;1.90;;;;;;;25.92;55.77;99003.94;2071297;28;20065;-51
2023/06/21 00:19:19;;;;;;;2.42;2.20;;;;;;;25.92;55.83;98993.88;2072033;28;20250;-48
2023/06/21 00:20:22;;;;;;;2.13;2.03;;;;;;;25.92;56.06;98990.34;2071532;28;20061;-50
2023/06/21 00:21:23;;;;;;;4.57;1.83;;;;;;;25.95;55.58;98992.56;2072159;28;20064;-48
2023/06/21 00:22:24;;;;;;;1.92;1.55;;;;;;;25.93;55.92;98992.81;2071227;28;20071;-48
2023/06/21 00:23:26;;;;;;;1.80;1.70;;;;;;;25.93;55.42;98992.81;2070447;28;20085;-51
2023/06/21 00:24:27;;;;;;;2.20;2.00;;;;;;;25.94;55.72;98989.03;2072582;28;20440;-49
2023/06/21 00:25:29;;;;;;;1.90;1.80;;;;;;;25.93;55.76;98987.38;2071129;28;20053;-49
2023/06/21 00:26:29;;;;;;;2.50;2.10;;;;;;;25.94;55.56;98986.31;2072702;28;20037;-48
2023/06/21 00:27:31;;;;;;;2.50;2.30;;;;;;;25.94;55.34;98988.22;2072586;28;20559;-50
2023/06/21 00:28:32;;;;;;;2.78;2.47;;;;;;;25.93;55.90;98987.38;2069395;28;20397;-51
2023/06/21 00:29:34;;;;;;;2.33;2.00;;;;;;;25.93;55.69;98984.66;2071250;28;20099;-53
2023/06/21 00:30:35;;;;;;;2.05;1.85;;;;;;;25.94;55.75;98993.66;2072054;28;20991;-48
2023/06/21 00:31:36;;;;;;;2.25;1.90;;;;;;;25.94;55.64;98990.94;2071102;28;20072;-48
2023/06/21 00:32:39;;;;;;;2.25;1.85;;;;;;;25.93;55.88;98990.09;2072879;28;20042;-57
2023/06/21 00:33:39;;;;;;;2.05;1.83;;;;;;;25.92;56.00;98987.63;2071312;28;20050;-48
2023/06/21 00:34:42;;;;;;;1.98;1.75;;;;;;;25.90;55.95;98993.28;2070348;28;20140;-50
2023/06/21 00:35:44;;;;;;;2.20;1.90;;;;;;;25.92;55.64;98990.34;2071811;28;20042;-50
2023/06/21 00:36:46;;;;;;;2.45;1.98;;;;;;;25.91;55.71;98989.53;2072520;28;20095;-49
2023/06/21 00:37:47;;;;;;;1.70;1.60;;;;;;;25.90;55.94;98993.28;2070061;28;20046;-52
2023/06/21 00:38:48;;;;;;;2.83;2.47;;;;;;;25.93;55.40;98995.53;2072792;28;20462;-54
2023/06/21 00:39:49;;;;;;;2.30;1.77;;;;;;;25.92;56.00;98996.59;2070116;28;21617;-54
2023/06/21 00:40:53;;;;;;;1.67;1.58;;;;;;;25.90;55.56;98987.84;2073318;28;20499;-52
2023/06/21 00:41:53;;;;;;;3.30;2.47;;;;;;;25.92;56.14;98993.88;2070109;28;20135;-49
2023/06/21 00:42:55;;;;;;;2.10;1.90;;;;;;;25.90;56.04;98993.28;2074708;28;20053;-48
2023/06/21 00:43:56;;;;;;;1.75;1.48;;;;;;;25.90;55.47;98995.19;2069226;28;20484;-50
2023/06/21 00:44:58;;;;;;;2.30;2.08;;;;;;;25.89;56.14;98997.09;2067943;28;20053;-50
2023/06/21 00:45:59;;;;;;;1.92;1.73;;;;;;;25.89;55.91;98996.28;2072552;28;20088;-51
2023/06/21 00:47:01;;;;;;;6.22;2.60;;;;;;;25.89;56.14;98994.38;2072723;28;20207;-53
2023/06/21 00:48:02;;;;;;;2.45;2.25;;;;;;;25.90;55.35;98996.00;2071180;28;20074;-49
2023/06/21 00:49:04;;;;;;;2.05;1.60;;;;;;;25.90;55.99;98996.00;2073955;28;20454;-50
2023/06/21 00:50:06;;;;;;;2.30;1.90;;;;;;;25.91;55.70;98992.25;2070903;28;20465;-50
2023/06/21 00:51:13;;;;;;;2.28;2.08;;;;;;;25.91;55.47;98996.84;2071495;28;20050;-51
2023/06/21 00:52:14;;;;;;;2.70;1.92;;;;;;;25.90;55.77;98992.47;2069197;28;20077;-52
2023/06/21 00:53:16;;;;;;;1.90;1.80;;;;;;;25.89;55.94;98991.66;2070538;28;20057;-51
2023/06/21 00:54:17;;;;;;;2.30;2.10;;;;;;;25.89;55.99;98991.66;2071779;28;20143;-51
2023/06/21 00:55:21;;;;;;;2.22;2.13;;;;;;;25.90;56.08;98998.72;2072044;28;20224;-50
2023/06/21 00:56:22;;;;;;;2.83;2.10;;;;;;;25.88;55.97;98991.88;2069534;28;20049;-52
2023/06/21 00:57:24;;;;;;;2.20;1.83;;;;;;;25.90;55.49;98997.91;2071289;28;20208;-50
2023/06/21 00:58:25;;;;;;;2.65;2.28;;;;;;;25.88;56.11;98995.41;2074478;28;20479;-52
2023/06/21 00:59:27;;;;;;;2.20;2.00;;;;;;;25.86;55.71;98989.44;2072167;28;20050;-50
2023/06/21 01:00:28;;;;;;;2.35;2.15;;;;;;;25.88;55.67;98984.56;2070348;28;20582;-50
2023/06/21 01:01:30;;;;;;;2.53;2.08;;;;;;;25.89;55.98;98991.66;2074023;28;20151;-51
2023/06/21 01:02:31;;;;;;;2.15;2.03;;;;;;;25.88;55.54;98992.69;2071053;28;20050;-50
2023/06/21 01:03:33;;;;;;;2.13;1.75;;;;;;;25.90;55.46;98987.03;2075033;28;20063;-52
2023/06/21 01:04:34;;;;;;;2.45;1.95;;;;;;;25.89;55.64;98986.22;2070041;28;20050;-52
2023/06/21 01:05:36;;;;;;;2.25;1.80;;;;;;;25.89;55.41;98986.22;2072165;28;20057;-51
2023/06/21 01:06:45;;;;;;;1.67;1.58;;;;;;;25.90;55.88;98987.84;2073224;28;20127;-53
2023/06/21 01:08:00;;;;;;;3.65;1.80;;;;;;;25.90;56.07;98993.28;2069743;28;20044;-52
2023/06/21 01:09:13;;;;;;;2.22;2.03;;;;;;;25.89;55.73;98999.00;2069320;28;20058;-50
2023/06/21 01:10:27;;;;;;;2.58;1.90;;;;;;;25.88;55.96;98994.59;2070220;28;20116;-50
2023/06/21 01:11:30;;;;;;;3.17;2.22;;;;;;;25.87;55.97;98999.22;2072655;28;20077;-50
2023/06/21 01:12:43;;;;;;;2.25;2.13;;;;;;;25.86;55.72;99003.00;2073596;28;20550;-48
2023/06/21 01:13:55;;;;;;;3.33;2.50;;;;;;;25.84;55.84;98991.56;2073787;28;20665;-51
2023/06/21 01:15:02;;;;;;;1.67;1.58;;;;;;;25.87;56.05;99004.66;2072052;28;20140;-51
2023/06/21 01:16:06;;;;;;;2.50;1.85;;;;;;;25.88;55.64;98997.31;2070748;28;20527;-54
2023/06/21 01:17:10;;;;;;;2.50;1.95;;;;;;;25.87;55.73;98999.22;2071222;28;20062;-50
2023/06/21 01:18:14;;;;;;;2.05;1.70;;;;;;;25.88;56.02;98998.13;2071060;28;20058;-50
2023/06/21 01:19:28;;;;;;;2.05;1.90;;;;;;;25.88;55.75;98994.59;2071800;28;20123;-51
2023/06/21 01:20:33;;;;;;;2.40;1.73;;;;;;;25.86;56.21;98997.56;2064035;28;20053;-50
2023/06/21 01:21:37;;;;;;;2.05;1.85;;;;;;;25.87;55.59;98993.78;2070280;28;20062;-50
2023/06/21 01:22:54;;;;;;;1.83;1.70;;;;;;;25.88;55.72;98997.31;2072835;28;20053;-51
2023/06/21 01:24:10;;;;;;;1.55;1.45;;;;;;;25.85;55.60;98996.75;2071532;28;20056;-50
2023/06/21 01:25:22;;;;;;;2.17;1.98;;;;;;;25.84;56.16;98997.00;2071033;28;20042;-51
2023/06/21 01:26:43;;;;;;;2.10;1.90;;;;;;;25.83;55.89;98996.16;2072589;28;20076;-50
2023/06/21 01:27:56;;;;;;;1.80;1.70;;;;;;;25.81;56.54;98997.44;2069589;28;20137;-51
2023/06/21 01:29:11;;;;;;;2.45;1.80;;;;;;;25.82;56.07;98990.94;2067358;28;22565;-50
2023/06/21 01:30:14;;;;;;;2.08;1.88;;;;;;;25.83;55.91;98989.91;2070364;28;20103;-52
2023/06/21 01:31:17;;;;;;;1.83;1.73;;;;;;;25.84;56.04;98992.38;2070070;28;21382;-49
2023/06/21 01:32:18;;;;;;;2.75;2.47;;;;;;;25.87;55.88;98995.69;2071363;28;20265;-50
2023/06/21 01:33:20;;;;;;;2.42;2.10;;;;;;;25.85;56.17;98995.91;2071603;28;20222;-51
2023/06/21 01:34:21;;;;;;;1.63;1.52;;;;;;;25.87;56.04;98993.78;2071577;28;20049;-53
2023/06/21 01:35:24;;;;;;;1.77;1.67;;;;;;;25.88;56.24;98995.41;2073768;28;20661;-52
2023/06/21 01:36:25;;;;;;;2.08;1.88;;;;;;;25.89;56.25;98990.84;2069383;28;20690;-51
2023/06/21 01:37:26;;;;;;;2.72;1.80;;;;;;;25.87;55.73;98999.22;2070330;28;20048;-52
2023/06/21 01:38:27;;;;;;;2.58;1.77;;;;;;;25.89;55.75;98997.09;2071108;28;20268;-48
2023/06/21 01:39:29;;;;;;;2.22;1.88;;;;;;;25.88;55.74;98989.16;2073461;28;20049;-52
2023/06/21 01:40:30;;;;;;;2.08;1.88;;;;;;;25.87;55.94;98988.34;2072383;28;20423;-48
2023/06/21 01:41:32;;;;;;;1.98;1.77;;;;;;;25.89;55.95;98997.09;2070966;28;20140;-52
2023/06/21 01:42:33;;;;;;;1.80;1.70;;;;;;;25.87;55.87;98993.78;2071899;28;20476;-48
2023/06/21 01:43:35;;;;;;;2.10;1.90;;;;;;;25.86;55.60;98992.16;2070915;28;20046;-51
2023/06/21 01:44:38;;;;;;;3.63;1.75;;;;;;;25.87;55.62;98995.69;2070495;28;20466;-48
2023/06/21 01:45:40;;;;;;;2.33;2.13;;;;;;;25.87;56.06;98990.25;2071400;28;20221;-50
2023/06/21 01:46:42;;;;;;;2.05;1.92;;;;;;;25.89;56.00;98988.13;2072453;28;20084;-49
2023/06/21 01:47:45;;;;;;;2.25;2.00;;;;;;;25.89;55.71;98991.66;2074358;28;20128;-51
2023/06/21 01:48:47;;;;;;;2.22;1.92;;;;;;;25.86;55.92;98986.72;2070792;28;20158;-50
2023/06/21 01:49:49;;;;;;;2.15;1.95;;;;;;;25.87;56.05;98987.53;2071826;28;20213;-49
2023/06/21 01:50:51;;;;;;;2.17;1.90;;;;;;;25.88;55.62;98990.00;2073244;28;20069;-51
2023/06/21 01:51:54;;;;;;;2.83;2.33;;;;;;;25.87;55.55;98982.09;2071758;28;20061;-50
2023/06/21 01:52:56;;;;;;;2.40;1.88;;;;;;;25.85;55.72;98988.59;2072571;28;20126;-49
2023/06/21 01:53:58;;;;;;;1.73;1.63;;;;;;;25.88;55.99;98987.28;2071124;28;20381;-53
2023/06/21 01:55:00;;;;;;;2.33;1.88;;;;;;;25.86;55.88;98992.16;2071537;28;20602;-53
2023/06/21 01:56:05;;;;;;;2.35;1.88;;;;;;;25.89;55.65;98993.56;2074908;28;20046;-50
2023/06/21 01:57:10;;;;;;;1.90;1.70;;;;;;;25.85;55.46;98991.31;2072034;28;20050;-53
2023/06/21 01:58:12;;;;;;;2.53;1.80;;;;;;;25.85;55.54;98996.75;2072176;28;20050;-50
2023/06/21 01:59:14;;;;;;;2.22;1.70;;;;;;;25.86;55.96;98994.84;2070653;28;20594;-50
2023/06/21 02:00:18;;;;;;;2.50;1.98;;;;;;;25.85;55.84;98985.88;2073030;28;20057;-51
2023/06/21 02:01:20;;;;;;;2.58;2.38;;;;;;;25.86;55.56;98994.84;2071099;28;20111;-53
2023/06/21 02:02:23;;;;;;;2.10;1.73;;;;;;;25.85;56.08;98987.75;2071122;28;20060;-49
2023/06/21 02:03:25;;;;;;;2.60;2.17;;;;;;;25.85;55.56;98991.31;2073375;28;20125;-53
2023/06/21 02:04:28;;;;;;;2.08;1.88;;;;;;;25.85;55.80;98985.88;2070058;28;20134;-48
2023/06/21 02:05:30;;;;;;;1.98;1.75;;;;;;;25.87;55.73;98979.38;2070490;28;20174;-52
2023/06/21 02:06:33;;;;;;;2.55;2.03;;;;;;;25.87;55.78;98984.81;2072452;28;20059;-50
2023/06/21 02:07:34;;;;;;;2.45;1.98;;;;;;;25.88;55.47;98981.00;2072031;28;20549;-48
2023/06/21 02:08:37;;;;;;;3.03;2.25;;;;;;;25.88;55.51;98984.56;2069395;28;20049;-49
2023/06/21 02:09:40;;;;;;;1.95;1.73;;;;;;;25.87;56.05;98988.34;2069323;28;20049;-52
2023/06/21 02:10:41;;;;;;;1.88;1.67;;;;;;;25.88;55.60;98983.72;2070126;28;20079;-51
2023/06/21 02:11:43;;;;;;;2.30;1.77;;;;;;;25.88;55.99;98979.13;2072089;28;20478;-51
2023/06/21 02:12:47;;;;;;;2.33;1.60;;;;;;;25.89;55.50;98974.53;2070834;28;20046;-51
2023/06/21 02:13:49;;;;;;;2.08;1.77;;;;;;;25.88;55.90;98972.84;2070955;28;20611;-51
2023/06/21 02:14:50;;;;;;;2.50;1.80;;;;;;;25.87;55.67;98980.19;2070632;28;20049;-51
2023/06/21 02:15:53;;;;;;;1.70;1.55;;;;;;;25.87;55.56;98972.03;2071274;28;20087;-49
2023/06/21 02:16:54;;;;;;;1.67;1.58;;;;;;;25.88;55.56;98981.84;2072639;28;20697;-49
2023/06/21 02:17:56;;;;;;;3.20;1.73;;;;;;;25.88;55.43;98975.56;2068202;28;20050;-50
2023/06/21 02:18:57;;;;;;;1.52;1.42;;;;;;;25.85;55.53;98972.31;2070448;28;20045;-51
2023/06/21 02:19:58;;;;;;;1.92;1.83;;;;;;;25.85;55.59;98971.44;2070909;28;20057;-49
2023/06/21 02:20:59;;;;;;;3.97;2.30;;;;;;;25.85;55.36;98976.88;2072518;28;20084;-48
2023/06/21 02:22:02;;;;;;;2.80;1.98;;;;;;;25.86;55.86;98970.41;2070776;28;20064;-48
2023/06/21 02:23:03;;;;;;;1.98;1.85;;;;;;;25.84;55.68;98973.34;2072246;28;20049;-48
2023/06/21 02:24:05;;;;;;;2.40;2.20;;;;;;;25.88;55.41;98972.84;2070215;28;20057;-48
2023/06/21 02:25:07;;;;;;;3.28;1.92;;;;;;;25.87;55.94;98966.59;2072473;28;20512;-48
2023/06/21 02:26:09;;;;;;;2.53;2.33;;;;;;;25.87;55.34;98968.50;2069989;28;20535;-49
2023/06/21 02:27:10;;;;;;;2.13;1.92;;;;;;;25.88;55.93;98962.81;2070954;28;20080;-49
2023/06/21 02:28:12;;;;;;;2.35;2.00;;;;;;;25.84;56.03;98961.66;2070790;28;20647;-50
2023/06/21 02:29:12;;;;;;;2.75;2.10;;;;;;;25.85;56.00;98966.03;2068794;28;20117;-50
2023/06/21 02:30:14;;;;;;;2.10;1.90;;;;;;;25.84;55.61;98964.38;2071589;28;20056;-51
2023/06/21 02:31:16;;;;;;;1.55;1.20;;;;;;;25.85;55.92;98974.16;2070741;28;20075;-49
2023/06/21 02:32:18;;;;;;;2.03;1.83;;;;;;;25.85;55.69;98974.16;2070613;28;20069;-49
2023/06/21 02:33:19;;;;;;;2.67;1.73;;;;;;;25.85;55.97;98968.72;2070348;28;20063;-50
2023/06/21 02:34:21;;;;;;;1.70;1.60;;;;;;;25.84;56.14;98967.09;2069054;28;20046;-50
2023/06/21 02:35:21;;;;;;;3.38;1.80;;;;;;;25.87;55.65;98965.78;2069826;28;20152;-51
2023/06/21 02:36:23;;;;;;;2.15;1.75;;;;;;;25.83;56.07;98971.72;2072733;28;20052;-50
2023/06/21 02:37:24;;;;;;;1.67;1.58;;;;;;;25.83;55.69;98970.91;2073442;28;20045;-48
2023/06/21 02:38:26;;;;;;;2.05;1.90;;;;;;;25.86;55.41;98975.84;2072279;28;20515;-50
2023/06/21 02:39:27;;;;;;;2.45;1.95;;;;;;;25.85;55.44;98971.44;2071452;28;20053;-50
2023/06/21 02:40:28;;;;;;;2.55;1.90;;;;;;;25.84;55.45;98978.78;2072064;28;20077;-48
2023/06/21 02:41:29;;;;;;;2.45;2.13;;;;;;;25.85;55.34;98972.31;2072640;28;20084;-50
2023/06/21 02:42:32;;;;;;;1.95;1.60;;;;;;;25.83;56.19;98976.31;2072179;28;20056;-49
2023/06/21 02:43:33;;;;;;;2.30;2.10;;;;;;;25.85;55.62;98974.16;2072028;28;20049;-48
2023/06/21 02:44:34;;;;;;;2.35;1.65;;;;;;;25.85;55.68;98971.44;2071124;28;20041;-48
2023/06/21 02:45:36;;;;;;;2.30;1.75;;;;;;;25.85;55.60;98976.88;2071499;28;20037;-48
2023/06/21 02:46:40;;;;;;;1.63;1.52;;;;;;;25.85;55.47;98971.44;2068176;28;20050;-57
2023/06/21 02:47:40;;;;;;;2.38;2.17;;;;;;;25.83;55.91;98971.72;2070110;28;20132;-52
2023/06/21 02:48:42;;;;;;;2.00;1.90;;;;;;;25.83;56.06;98974.44;2071321;28;20050;-51
2023/06/21 02:49:43;;;;;;;3.05;1.60;;;;;;;25.85;55.65;98976.88;2068963;28;20080;-48
2023/06/21 02:50:45;;;;;;;2.28;2.05;;;;;;;25.84;55.55;98977.97;2072071;28;20065;-50
2023/06/21 02:51:49;;;;;;;2.15;1.95;;;;;;;25.83;55.77;98982.59;2070082;28;20495;-51
2023/06/21 02:52:50;;;;;;;1.95;1.77;;;;;;;25.81;56.15;98975.72;2069083;28;20061;-48
2023/06/21 02:53:52;;;;;;;2.28;2.08;;;;;;;25.83;55.94;98984.47;2068952;28;20693;-49
2023/06/21 02:54:53;;;;;;;2.10;1.90;;;;;;;25.83;55.99;98981.75;2070316;28;20053;-50
2023/06/21 02:55:54;;;;;;;1.95;1.85;;;;;;;25.83;56.00;98976.31;2069084;28;20114;-50
2023/06/21 02:56:56;;;;;;;2.45;2.25;;;;;;;25.82;56.28;98978.16;2071584;28;20499;-49
2023/06/21 02:57:57;;;;;;;2.42;1.85;;;;;;;25.83;55.86;98981.75;2072194;28;20689;-49
2023/06/21 02:58:58;;;;;;;2.05;1.85;;;;;;;25.81;55.89;98981.97;2070610;28;20058;-50
2023/06/21 02:59:59;;;;;;;2.25;2.05;;;;;;;25.82;55.70;98986.31;2071630;28;20075;-50
2023/06/21 03:01:01;;;;;;;2.95;2.28;;;;;;;25.81;55.70;98981.13;2071072;28;20420;-50
2023/06/21 03:02:04;;;;;;;2.08;1.92;;;;;;;25.81;55.76;98984.69;2069824;28;20057;-49
2023/06/21 03:03:06;;;;;;;1.83;1.73;;;;;;;25.82;55.75;98985.50;2070677;28;20053;-50
2023/06/21 03:04:07;;;;;;;1.80;1.70;;;;;;;25.82;55.86;98980.06;2070048;28;20095;-50
2023/06/21 03:05:11;;;;;;;2.05;1.85;;;;;;;25.82;56.24;98980.88;2070863;28;20120;-49
2023/06/21 03:06:13;;;;;;;2.22;2.00;;;;;;;25.81;56.08;98973.81;2074460;28;20107;-48
2023/06/21 03:07:14;;;;;;;1.98;1.77;;;;;;;25.81;55.78;98978.44;2072354;28;20068;-52
2023/06/21 03:08:16;;;;;;;2.65;2.20;;;;;;;25.81;56.09;98976.53;2070673;28;20061;-50
2023/06/21 03:09:16;;;;;;;1.52;1.40;;;;;;;25.81;56.10;98973.00;2068856;28;20220;-49
2023/06/21 03:10:19;;;;;;;1.67;1.55;;;;;;;25.80;56.10;98977.59;2073093;28;20065;-50
2023/06/21 03:11:20;;;;;;;1.52;1.42;;;;;;;25.80;56.03;98971.34;2072408;28;20080;-51
2023/06/21 03:12:22;;;;;;;2.03;1.83;;;;;;;25.80;56.45;98972.16;2069824;28;20045;-49
2023/06/21 03:13:23;;;;;;;2.30;1.92;;;;;;;25.82;56.04;98974.63;2073362;28;20136;-48
2023/06/21 03:14:25;;;;;;;2.40;2.20;;;;;;;25.82;55.87;98974.63;2071027;28;20466;-49
2023/06/21 03:15:25;;;;;;;2.35;2.15;;;;;;;25.81;55.99;98976.53;2073278;28;20099;-48
2023/06/21 03:16:27;;;;;;;1.98;1.77;;;;;;;25.80;56.02;98976.78;2071408;28;20116;-49
2023/06/21 03:17:30;;;;;;;2.20;2.10;;;;;;;25.81;55.99;98981.97;2074227;28;20050;-49
2023/06/21 03:18:32;;;;;;;2.05;1.80;;;;;;;25.82;55.76;98980.06;2074281;28;20037;-49
2023/06/21 03:19:33;;;;;;;2.42;2.20;;;;;;;25.81;56.10;98978.44;2075062;28;20057;-58
2023/06/21 03:20:34;;;;;;;1.77;1.67;;;;;;;25.81;55.83;98983.84;2073082;28;20034;-48
2023/06/21 03:21:35;;;;;;;2.10;1.55;;;;;;;25.80;55.72;98982.22;2070506;28;20041;-50
2023/06/21 03:22:37;;;;;;;1.70;1.60;;;;;;;25.81;55.85;98981.97;2070459;28;20107;-49
2023/06/21 03:23:39;;;;;;;2.17;1.98;;;;;;;25.80;56.09;98988.47;2068050;28;20577;-49
2023/06/21 03:24:39;;;;;;;2.00;1.80;;;;;;;25.81;55.85;98987.41;2072904;28;20136;-49
2023/06/21 03:25:42;;;;;;;2.10;1.75;;;;;;;25.79;56.07;98985.97;2070696;28;20049;-48
2023/06/21 03:26:44;;;;;;;2.60;1.88;;;;;;;25.81;55.75;98981.13;2074521;28;20060;-50
2023/06/21 03:27:47;;;;;;;2.20;1.98;;;;;;;25.80;55.58;98980.31;2071538;28;20049;-49
2023/06/21 03:28:48;;;;;;;2.15;1.95;;;;;;;25.79;56.05;98984.09;2070471;28;20423;-50
2023/06/21 03:29:50;;;;;;;2.13;1.80;;;;;;;25.79;56.08;98988.69;2071963;28;20050;-51
2023/06/21 03:30:50;;;;;;;2.33;2.10;;;;;;;25.79;56.22;98983.25;2071369;28;20072;-48
2023/06/21 03:31:52;;;;;;;2.40;2.03;;;;;;;25.78;56.08;98987.06;2070051;28;20045;-49
2023/06/21 03:32:54;;;;;;;3.58;2.10;;;;;;;25.80;56.25;98987.66;2073412;28;20176;-49
2023/06/21 03:33:56;;;;;;;2.20;2.00;;;;;;;25.80;55.62;98991.19;2072341;28;20056;-49
2023/06/21 03:34:58;;;;;;;2.45;1.55;;;;;;;25.80;56.27;98998.53;2076525;28;20166;-48
2023/06/21 03:36:00;;;;;;;2.20;2.00;;;;;;;25.79;56.01;98986.81;2072567;28;20049;-49
2023/06/21 03:37:02;;;;;;;2.17;1.80;;;;;;;25.80;56.36;98993.09;2071531;28;20466;-48
2023/06/21 03:38:03;;;;;;;2.20;1.83;;;;;;;25.79;56.00;98985.97;2073450;28;20065;-51
2023/06/21 03:39:04;;;;;;;2.25;1.58;;;;;;;25.80;56.17;98987.66;2071053;28;20042;-49
2023/06/21 03:40:08;;;;;;;2.53;2.17;;;;;;;25.78;56.01;98987.06;2071007;28;20362;-50
2023/06/21 03:41:10;;;;;;;1.90;1.70;;;;;;;25.78;55.74;98995.22;2073800;28;20049;-48
2023/06/21 03:42:11;;;;;;;2.50;2.03;;;;;;;25.78;56.15;98979.72;2072318;28;20056;-48
2023/06/21 03:43:13;;;;;;;2.22;2.03;;;;;;;25.77;56.35;98980.81;2071732;28;20060;-49
2023/06/21 03:44:14;;;;;;;2.10;1.90;;;;;;;25.79;56.47;98983.25;2071760;28;20053;-49
2023/06/21 03:45:16;;;;;;;1.92;1.63;;;;;;;25.80;56.36;98987.66;2071967;28;20053;-48
2023/06/21 03:46:18;;;;;;;2.10;1.90;;;;;;;25.79;56.24;98984.09;2071807;28;20205;-49
2023/06/21 03:47:20;;;;;;;1.63;1.52;;;;;;;25.79;56.35;98985.97;2073161;28;20049;-49
2023/06/21 03:48:22;;;;;;;2.47;2.28;;;;;;;25.80;55.71;98987.66;2074108;28;20519;-49
2023/06/21 03:49:24;;;;;;;2.83;2.13;;;;;;;25.78;56.34;98992.50;2070981;28;20546;-50
2023/06/21 03:50:24;;;;;;;2.05;1.85;;;;;;;25.79;55.71;98989.53;2071647;28;20138;-50
2023/06/21 03:51:26;;;;;;;1.88;1.77;;;;;;;25.79;55.87;98988.69;2071762;28;20551;-49
2023/06/21 03:52:27;;;;;;;2.28;2.08;;;;;;;25.80;55.92;98993.09;2071571;28;20052;-49
2023/06/21 03:53:29;;;;;;;2.10;1.80;;;;;;;25.79;55.58;98992.22;2071347;28;20053;-49
2023/06/21 03:54:29;;;;;;;2.88;2.13;;;;;;;25.78;56.01;98995.22;2072431;28;20125;-49
2023/06/21 03:55:31;;;;;;;2.08;1.92;;;;;;;25.78;55.89;98997.94;2070654;28;20049;-49
2023/06/21 03:56:32;;;;;;;1.95;1.60;;;;;;;25.79;55.67;98994.13;2071415;28;20488;-49
2023/06/21 03:57:34;;;;;;;1.98;1.77;;;;;;;25.76;55.89;98991.91;2073313;28;20088;-48
2023/06/21 03:58:35;;;;;;;1.65;1.50;;;;;;;25.78;56.28;99001.47;2073371;28;20612;-48
2023/06/21 03:59:37;;;;;;;2.88;2.05;;;;;;;25.80;56.01;98998.53;2072399;28;20050;-51
2023/06/21 04:00:37;;;;;;;1.63;1.52;;;;;;;25.77;55.75;98994.41;2071212;28;20049;-52
2023/06/21 04:01:39;;;;;;;2.60;2.40;;;;;;;25.79;55.96;98996.84;2071751;28;20050;-49
2023/06/21 04:02:40;;;;;;;2.97;1.92;;;;;;;25.77;56.12;98997.09;2073712;28;20096;-51
2023/06/21 04:03:43;;;;;;;2.13;1.95;;;;;;;25.78;55.98;99004.19;2072817;28;20198;-49
2023/06/21 04:04:44;;;;;;;1.77;1.48;;;;;;;25.77;55.65;98999.81;2072098;28;20730;-49
2023/06/21 04:05:46;;;;;;;2.20;2.00;;;;;;;25.78;56.04;99001.47;2072681;28;20045;-49
2023/06/21 04:06:46;;;;;;;2.55;2.05;;;;;;;25.78;56.28;99006.09;2070946;28;20061;-51
2023/06/21 04:07:48;;;;;;;2.20;2.00;;;;;;;25.77;55.98;99007.97;2071696;28;20049;-50
2023/06/21 04:08:49;;;;;;;2.10;1.52;;;;;;;25.77;55.73;99005.25;2070556;28;20073;-48
2023/06/21 04:09:51;;;;;;;2.05;1.67;;;;;;;25.77;56.09;99007.13;2072476;28;20045;-49
2023/06/21 04:10:52;;;;;;;2.35;2.05;;;;;;;25.77;56.08;99007.97;2072932;28;20519;-48
2023/06/21 04:11:54;;;;;;;1.98;1.85;;;;;;;25.77;55.75;99007.13;2070836;28;20168;-48
2023/06/21 04:12:54;;;;;;;2.70;2.50;;;;;;;25.77;55.82;98999.81;2070505;28;20534;-48
2023/06/21 04:13:56;;;;;;;2.15;1.90;;;;;;;25.78;55.89;99003.38;2069515;28;20252;-49
2023/06/21 04:14:57;;;;;;;2.28;1.90;;;;;;;25.77;55.63;99009.84;2072898;28;20169;-49
2023/06/21 04:15:59;;;;;;;1.90;1.80;;;;;;;25.78;55.55;99006.09;2072088;28;20054;-49
2023/06/21 04:16:59;;;;;;;3.30;2.03;;;;;;;25.77;55.89;99009.84;2074025;28;20103;-48
2023/06/21 04:18:01;;;;;;;2.17;1.98;;;;;;;25.77;55.98;99015.28;2070650;28;20604;-48
2023/06/21 04:19:03;;;;;;;2.42;2.22;;;;;;;25.77;56.24;99024.28;2072600;28;20277;-48
2023/06/21 04:20:10;;;;;;;2.75;1.70;;;;;;;25.78;55.56;99019.66;2072893;28;20046;-49
2023/06/21 04:21:11;;;;;;;2.42;2.13;;;;;;;25.75;56.37;99018.25;2072412;28;20103;-50
2023/06/21 04:22:13;;;;;;;2.10;1.83;;;;;;;25.76;55.64;99021.78;2070125;28;20674;-51
2023/06/21 04:23:14;;;;;;;1.75;1.65;;;;;;;25.76;56.37;99016.34;2071838;28;20373;-50
2023/06/21 04:24:15;;;;;;;1.70;1.60;;;;;;;25.77;55.76;99018.00;2072870;28;20388;-49
2023/06/21 04:25:16;;;;;;;1.70;1.60;;;;;;;25.75;55.79;99017.44;2072154;28;20054;-51
2023/06/21 04:26:18;;;;;;;2.28;1.90;;;;;;;25.77;56.12;99023.44;2069856;28;20095;-49
2023/06/21 04:27:22;;;;;;;2.42;1.90;;;;;;;25.75;55.77;99018.25;2070239;28;20049;-50
2023/06/21 04:28:25;;;;;;;2.65;2.00;;;;;;;25.76;56.31;99019.06;2072200;28;20408;-49
2023/06/21 04:29:26;;;;;;;1.85;1.65;;;;;;;25.76;55.81;99024.50;2073801;28;20046;-49
2023/06/21 04:30:34;;;;;;;1.70;1.50;;;;;;;25.75;56.12;99023.69;2070651;28;20479;-52
2023/06/21 04:31:37;;;;;;;1.70;1.60;;;;;;;25.76;56.33;99027.22;2073671;28;20049;-48
2023/06/21 04:32:44;;;;;;;2.38;2.10;;;;;;;25.75;55.79;99029.13;2070635;28;20553;-48
2023/06/21 04:33:45;;;;;;;1.92;1.73;;;;;;;25.75;56.44;99033.75;2071002;28;20058;-48
2023/06/21 04:34:49;;;;;;;2.00;1.77;;;;;;;25.75;56.05;99029.13;2073075;28;20058;-50
2023/06/21 04:35:50;;;;;;;2.50;2.13;;;;;;;25.75;55.94;99031.03;2071628;28;20080;-48
2023/06/21 04:36:53;;;;;;;2.28;2.08;;;;;;;25.75;56.17;99034.56;2070301;28;20500;-49
2023/06/21 04:37:53;;;;;;;2.03;1.92;;;;;;;25.76;56.21;99033.47;2074868;28;20131;-48
2023/06/21 04:38:55;;;;;;;1.80;1.50;;;;;;;25.74;55.80;99027.47;2071043;28;20068;-49
2023/06/21 04:39:56;;;;;;;2.03;1.83;;;;;;;25.74;56.05;99032.91;2073874;28;20514;-48
2023/06/21 04:40:58;;;;;;;2.20;2.00;;;;;;;25.75;55.90;99029.13;2072971;28;20045;-49
2023/06/21 04:41:59;;;;;;;2.30;1.83;;;;;;;25.74;56.10;99030.19;2071029;28;20049;-48
2023/06/21 04:43:03;;;;;;;2.20;2.00;;;;;;;25.74;56.32;99026.63;2071266;28;20048;-50
2023/06/21 04:44:03;;;;;;;2.30;1.77;;;;;;;25.73;56.43;99028.53;2071814;28;20114;-48
2023/06/21 04:45:06;;;;;;;1.70;1.60;;;;;;;25.74;55.87;99024.75;2071700;28;20619;-48
2023/06/21 04:46:08;;;;;;;2.10;1.90;;;;;;;25.74;56.18;99027.47;2071456;28;20142;-48
2023/06/21 04:47:09;;;;;;;1.80;1.70;;;;;;;25.74;56.25;99032.06;2070773;28;20077;-48
2023/06/21 04:48:11;;;;;;;1.88;1.50;;;;;;;25.74;56.34;99037.50;2070872;28;20080;-48
2023/06/21 04:49:12;;;;;;;4.30;2.03;;;;;;;25.74;56.34;99029.34;2073027;28;20124;-48
2023/06/21 04:50:15;;;;;;;2.38;2.17;;;;;;;25.76;55.95;99029.94;2070522;28;20049;-48
2023/06/21 04:51:17;;;;;;;1.80;1.65;;;;;;;25.75;55.85;99031.84;2069115;28;20235;-51
2023/06/21 04:52:18;;;;;;;2.05;1.83;;;;;;;25.75;55.94;99034.56;2071867;28;20164;-48
2023/06/21 04:53:28;;;;;;;2.45;2.25;;;;;;;25.74;56.01;99030.19;2072809;28;20060;-48
2023/06/21 04:54:32;;;;;;;2.95;2.50;;;;;;;25.71;56.43;99029.84;2072745;28;20080;-48